Haddam, Connecticut
Current Conditions -  °F | °C
As of 9:55 AM on Sunday 21 Dec 2014 (Local Time) from KSNC Reporting Station
Light Snow Light Snow  
Wind Chill: 26°   Ceiling: 100
Heat Index: 32°   Visibility: 1.5mi
Dew Point: 32°   Wind: 6mph
Humidity: 100%   Direction: 360°N
Pressure: 30.29"   Gusts: NA
Location:  41.48°N, 72.51°W
Report Text: KSNC 211455Z AUTO 36005KT 1 1/2SM -SN BKN001 OVC006 00/00 A3029 RMK AO2 P0008
Loading
Personal Weather Stations






























Interactive Weather Map New forecast layout! Learn more

10-Day Weather Forecast

Advertisements
Track Severe Weather on mobile